createdAt,value
2023-01-10T00:00:14.984Z,0.40
2023-01-10T00:05:18.787Z,0.20
2023-01-10T00:10:23.820Z,0.20
2023-01-10T00:15:31.924Z,0.20
2023-01-10T00:20:42.945Z,0.00
2023-01-10T00:25:45.210Z,0.20
2023-01-10T00:30:55.240Z,0.10
2023-01-10T00:35:58.927Z,0.20
2023-01-10T00:41:01.109Z,0.00
2023-01-10T00:46:03.856Z,0.00
2023-01-10T00:51:07.492Z,0.00
2023-01-10T00:56:09.899Z,0.00
2023-01-10T01:01:12.029Z,0.00
2023-01-10T01:06:15.625Z,0.00
2023-01-10T01:11:17.880Z,0.00
2023-01-10T01:16:20.584Z,0.00
2023-01-10T01:21:28.294Z,0.00
2023-01-10T01:26:30.580Z,0.00
2023-01-10T01:31:32.866Z,0.00
2023-01-10T01:36:36.363Z,0.00
2023-01-10T01:41:58.124Z,0.00
2023-01-10T01:47:04.999Z,0.00
2023-01-10T01:52:13.063Z,0.00
2023-01-10T01:57:19.229Z,0.00
2023-01-10T02:02:24.692Z,0.00
2023-01-10T02:07:33.083Z,0.00
2023-01-10T02:12:35.468Z,0.00
2023-01-10T02:17:38.164Z,0.00
2023-01-10T02:23:11.096Z,0.07
2023-01-10T02:28:47.112Z,0.10
2023-01-10T02:33:58.406Z,0.13
2023-01-10T02:39:06.173Z,0.10
2023-01-10T02:44:16.160Z,0.00
2023-01-10T02:49:20.842Z,0.20
2023-01-10T02:54:27.883Z,0.20
2023-01-10T02:59:52.280Z,0.10
2023-01-10T03:05:04.453Z,0.17
2023-01-10T03:10:10.439Z,0.10
2023-01-10T03:15:15.854Z,0.03
2023-01-10T03:20:22.259Z,0.00
2023-01-10T03:25:28.104Z,0.00
2023-01-10T03:30:37.736Z,0.00
2023-01-10T03:35:53.346Z,0.00
2023-01-10T03:41:00.669Z,0.10
2023-01-10T03:46:10.224Z,0.00
2023-01-10T03:51:15.215Z,0.00
2023-01-10T03:56:17.287Z,0.13
2023-01-10T04:01:20.023Z,0.10
2023-01-10T04:06:23.618Z,0.17
2023-01-10T04:11:25.835Z,0.20
2023-01-10T04:16:27.896Z,0.30
2023-01-10T04:21:31.438Z,0.20
2023-01-10T04:26:33.530Z,0.47
2023-01-10T04:31:35.458Z,0.47
2023-01-10T04:36:38.772Z,0.43
2023-01-10T04:41:41.003Z,0.60
2023-01-10T04:46:43.244Z,0.80
2023-01-10T04:51:47.045Z,0.70
2023-01-10T04:56:49.276Z,0.73
2023-01-10T05:01:51.651Z,0.40
2023-01-10T05:06:55.444Z,0.50
2023-01-10T05:11:57.811Z,0.70
2023-01-10T05:17:00.152Z,0.40
2023-01-10T05:22:03.756Z,0.73
2023-01-10T05:27:06.145Z,0.60
2023-01-10T05:32:08.287Z,0.70
2023-01-10T05:37:11.827Z,0.53
2023-01-10T05:42:13.895Z,0.47
2023-01-10T05:47:15.764Z,0.60
2023-01-10T05:52:19.569Z,0.73
2023-01-10T05:57:22.282Z,0.20
2023-01-10T06:02:26.714Z,0.80
2023-01-10T06:07:30.351Z,0.40
2023-01-10T06:12:53.780Z,0.50
2023-01-10T06:18:26.380Z,0.70
2023-01-10T06:23:30.880Z,0.57
2023-01-10T06:28:33.251Z,0.50
2023-01-10T06:33:36.166Z,0.60
2023-01-10T06:38:39.629Z,0.70
2023-01-10T06:43:41.841Z,0.67
2023-01-10T06:48:45.822Z,0.50
2023-01-10T06:53:49.536Z,0.63
2023-01-10T06:58:52.194Z,1.33
2023-01-10T07:03:54.363Z,1.13
2023-01-10T07:08:57.869Z,0.60
2023-01-10T07:14:00.132Z,0.57
2023-01-10T07:19:02.566Z,0.70
2023-01-10T07:24:06.865Z,0.80
2023-01-10T07:29:09.204Z,0.60
2023-01-10T07:34:11.266Z,0.60
2023-01-10T07:39:15.034Z,0.53
2023-01-10T07:44:17.028Z,0.47
2023-01-10T07:49:19.331Z,1.13
2023-01-10T07:54:23.362Z,0.63
2023-01-10T07:59:25.675Z,0.60
2023-01-10T08:04:28.354Z,1.30
2023-01-10T08:09:32.116Z,0.93
2023-01-10T08:14:34.395Z,0.77
2023-01-10T08:19:36.423Z,0.90
2023-01-10T08:24:40.017Z,0.50
2023-01-10T08:29:42.495Z,0.90
2023-01-10T08:34:44.961Z,0.73
2023-01-10T08:39:48.423Z,0.90
2023-01-10T08:44:50.646Z,0.80
2023-01-10T08:49:52.977Z,0.80
2023-01-10T08:54:56.759Z,0.90
2023-01-10T08:59:58.641Z,0.70
2023-01-10T09:05:00.668Z,1.43
2023-01-10T09:10:04.615Z,1.30
2023-01-10T09:15:08.276Z,1.10
2023-01-10T09:20:12.990Z,1.43
2023-01-10T09:25:16.606Z,1.00
2023-01-10T09:30:19.362Z,0.90
2023-01-10T09:35:21.883Z,1.03
2023-01-10T09:40:35.057Z,1.33
2023-01-10T09:45:44.489Z,0.97
2023-01-10T09:50:55.778Z,0.70
2023-01-10T09:56:01.585Z,0.87
2023-01-10T10:01:07.477Z,0.80
2023-01-10T10:06:13.421Z,0.63
2023-01-10T10:11:47.364Z,0.80
2023-01-10T10:17:04.559Z,1.30
2023-01-10T10:22:14.273Z,0.87
2023-01-10T10:27:24.337Z,0.60
2023-01-10T10:32:58.157Z,0.60
2023-01-10T10:38:06.858Z,0.50
2023-01-10T10:43:21.418Z,0.50
2023-01-10T10:48:27.063Z,0.50
2023-01-10T10:53:30.404Z,0.57
2023-01-10T10:58:34.813Z,0.93
2023-01-10T11:03:44.245Z,0.70
2023-01-10T11:08:48.865Z,0.50
2023-01-10T11:13:56.347Z,0.77
2023-01-10T11:19:16.123Z,0.67
2023-01-10T11:24:31.205Z,0.70
2023-01-10T11:29:40.045Z,1.00
2023-01-10T11:34:44.424Z,0.70
2023-01-10T11:39:47.117Z,0.87
2023-01-10T11:44:50.765Z,0.90
2023-01-10T11:49:53.487Z,0.93
2023-01-10T11:55:00.284Z,0.70
2023-01-10T12:00:07.550Z,0.53
2023-01-10T12:05:14.688Z,0.83
2023-01-10T12:10:22.540Z,0.60
2023-01-10T12:15:28.925Z,0.57
2023-01-10T12:20:33.953Z,0.70
2023-01-10T12:25:39.466Z,0.90
2023-01-10T12:30:50.193Z,0.90
2023-01-10T12:35:58.518Z,0.67
2023-01-10T12:41:04.527Z,0.53
2023-01-10T12:46:31.718Z,0.80
2023-01-10T12:51:37.127Z,0.40
2023-01-10T12:56:40.852Z,0.37
2023-01-10T13:01:47.534Z,0.50
2023-01-10T13:06:51.572Z,0.50
2023-01-10T13:11:59.886Z,0.40
2023-01-10T13:17:17.621Z,0.40
2023-01-10T13:22:24.330Z,0.60
2023-01-10T13:27:30.704Z,0.23
2023-01-10T13:32:38.648Z,0.60
2023-01-10T13:37:43.269Z,0.60
2023-01-10T13:43:02.927Z,0.70
2023-01-10T13:48:28.305Z,0.30
2023-01-10T13:53:55.141Z,0.43
2023-01-10T13:59:14.677Z,0.70
2023-01-10T14:04:24.244Z,0.60
2023-01-10T14:09:48.832Z,0.60
2023-01-10T14:14:58.506Z,0.40
2023-01-10T14:20:14.885Z,0.80
2023-01-10T14:25:21.990Z,0.43
2023-01-10T14:30:28.067Z,0.47
2023-01-10T14:35:39.345Z,0.50
2023-01-10T14:40:45.417Z,0.77
2023-01-10T14:45:53.664Z,0.70
2023-01-10T14:51:11.793Z,0.70
2023-01-10T14:56:24.945Z,0.67
2023-01-10T15:01:29.744Z,1.00
2023-01-10T15:06:53.025Z,0.90
2023-01-10T15:11:56.403Z,0.93
2023-01-10T15:17:02.546Z,0.97
2023-01-10T15:22:19.196Z,2.33
2023-01-10T15:27:21.583Z,0.90
2023-01-10T15:32:28.555Z,0.90
2023-01-10T15:37:36.301Z,1.23
2023-01-10T15:42:38.983Z,1.07
2023-01-10T15:47:44.814Z,0.97
2023-01-10T15:52:54.360Z,1.90
2023-01-10T15:57:56.811Z,0.93
2023-01-10T16:02:59.300Z,1.20
2023-01-10T16:08:08.135Z,1.10
2023-01-10T16:13:28.790Z,0.83
2023-01-10T16:18:31.169Z,0.97
2023-01-10T16:23:37.874Z,1.00
2023-01-10T16:28:39.856Z,1.10
2023-01-10T16:33:42.421Z,1.03
2023-01-10T16:38:46.567Z,1.20
2023-01-10T16:43:49.741Z,1.13
2023-01-10T16:48:53.607Z,1.30
2023-01-10T16:53:57.820Z,3.30
2023-01-10T16:59:00.141Z,1.40
2023-01-10T17:04:02.980Z,1.50
2023-01-10T17:09:06.856Z,1.67
2023-01-10T17:14:10.915Z,1.03
2023-01-10T17:19:13.104Z,1.50
2023-01-10T17:24:17.198Z,1.30
2023-01-10T17:29:20.449Z,1.10
2023-01-10T17:34:23.853Z,1.07
2023-01-10T17:39:27.943Z,1.10
2023-01-10T17:44:30.390Z,1.23
2023-01-10T17:49:32.498Z,1.30
2023-01-10T17:54:36.706Z,1.30
2023-01-10T17:59:39.439Z,1.30
2023-01-10T18:04:41.986Z,1.40
2023-01-10T18:09:45.361Z,0.90
2023-01-10T18:14:47.787Z,1.40
2023-01-10T18:19:50.823Z,0.90
2023-01-10T18:24:56.150Z,1.03
2023-01-10T18:29:58.915Z,1.30
2023-01-10T18:35:01.949Z,1.10
2023-01-10T18:40:06.495Z,0.80
2023-01-10T18:45:09.948Z,1.23
2023-01-10T18:50:12.958Z,0.93
2023-01-10T18:55:17.793Z,1.40
2023-01-10T19:00:22.495Z,0.87
2023-01-10T19:05:27.807Z,1.20
2023-01-10T19:10:49.845Z,0.77
2023-01-10T19:15:58.019Z,0.70
2023-01-10T19:21:01.643Z,0.60
2023-01-10T19:26:06.201Z,0.80
2023-01-10T19:31:11.162Z,0.53
2023-01-10T19:36:14.293Z,1.10
2023-01-10T19:41:24.359Z,1.30
2023-01-10T19:46:28.185Z,0.97
2023-01-10T19:51:32.197Z,0.77
2023-01-10T19:56:37.506Z,1.30
2023-01-10T20:01:41.594Z,0.80
2023-01-10T20:06:45.738Z,0.70
2023-01-10T20:11:50.801Z,0.70
2023-01-10T20:16:54.055Z,0.60
2023-01-10T20:21:57.522Z,1.27
2023-01-10T20:27:05.507Z,0.60
2023-01-10T20:32:08.763Z,0.37
2023-01-10T20:37:14.212Z,0.67
2023-01-10T20:42:19.515Z,0.50
2023-01-10T20:47:23.735Z,0.50
2023-01-10T20:52:27.729Z,0.70
2023-01-10T20:57:31.805Z,0.50
2023-01-10T21:02:34.742Z,0.47
2023-01-10T21:07:37.611Z,1.20
2023-01-10T21:12:41.592Z,0.70
2023-01-10T21:17:43.878Z,0.50
2023-01-10T21:22:47.119Z,0.47
2023-01-10T21:27:51.306Z,0.47
2023-01-10T21:32:53.392Z,0.60
2023-01-10T21:37:56.793Z,0.40
2023-01-10T21:43:01.337Z,0.57
2023-01-10T21:48:03.502Z,0.70
2023-01-10T21:53:07.629Z,0.40
2023-01-10T21:58:11.485Z,0.43
2023-01-10T22:03:13.771Z,0.30
2023-01-10T22:08:15.993Z,0.30
2023-01-10T22:13:19.704Z,0.37
2023-01-10T22:18:22.134Z,0.30
2023-01-10T22:23:24.620Z,0.30
2023-01-10T22:28:28.337Z,0.53
2023-01-10T22:33:31.840Z,0.60
2023-01-10T22:38:34.711Z,0.40
2023-01-10T22:43:38.489Z,0.47
2023-01-10T22:48:40.788Z,0.60
2023-01-10T22:53:43.158Z,0.60
2023-01-10T22:58:49.027Z,0.50
2023-01-10T23:03:51.528Z,0.67
2023-01-10T23:08:53.814Z,0.40
2023-01-10T23:13:57.333Z,0.40
2023-01-10T23:19:00.072Z,0.50
2023-01-10T23:24:02.338Z,0.50
2023-01-10T23:29:06.943Z,0.57
2023-01-10T23:34:09.481Z,0.40
2023-01-10T23:39:11.721Z,0.30
2023-01-10T23:44:15.381Z,0.50
2023-01-10T23:49:17.618Z,0.37
2023-01-10T23:54:19.838Z,0.40
2023-01-10T23:59:23.899Z,0.20
